Time;durP1;ratioP1;P1;durP2;ratioP2;P2;SDS_P1;SDS_P2;PMS_P1;PMS_P2;Temp;Humidity;BMP_temperature;BMP_pressure;BME280_temperature;BME280_humidity;BME280_pressure;Samples;Min_cycle;Max_cycle;Signal;HPM_P1;HPM_P2
2021/07/22 00:02:05;;;;;;;16.60;7.93;;;17.40;99.90;;;;;;5029820;28;20492;-84
2021/07/22 00:04:32;;;;;;;18.07;9.10;;;17.40;99.90;;;;;;5037589;28;20437;-84
2021/07/22 00:07:00;;;;;;;15.43;8.10;;;17.40;99.90;;;;;;5025864;28;20517;-83
2021/07/22 00:09:28;;;;;;;17.60;8.17;;;17.40;99.90;;;;;;5018015;28;20887;-84
2021/07/22 00:11:55;;;;;;;18.27;8.50;;;17.50;99.90;;;;;;5028027;28;20453;-84
2021/07/22 00:14:21;;;;;;;15.60;8.27;;;17.40;99.90;;;;;;5018492;28;20519;-83
2021/07/22 00:16:48;;;;;;;15.70;7.90;;;17.50;99.90;;;;;;5024837;28;20452;-84
2021/07/22 00:19:15;;;;;;;16.20;7.90;;;17.40;99.90;;;;;;5037615;28;20487;-84
2021/07/22 00:21:42;;;;;;;17.37;7.93;;;17.50;99.90;;;;;;5030299;28;20438;-84
2021/07/22 00:24:09;;;;;;;18.97;8.40;;;17.50;99.90;;;;;;5021883;28;20456;-84
2021/07/22 00:26:39;;;;;;;16.33;8.33;;;17.50;99.90;;;;;;5024777;28;20524;-84
2021/07/22 00:29:06;;;;;;;17.00;9.00;;;17.50;99.90;;;;;;5022480;28;20507;-84
2021/07/22 00:31:33;;;;;;;14.93;7.40;;;17.50;99.90;;;;;;5022760;28;20528;-84
2021/07/22 00:33:59;;;;;;;16.30;9.10;;;17.50;99.90;;;;;;5037678;28;20468;-84
2021/07/22 00:36:26;;;;;;;16.47;8.70;;;17.50;99.90;;;;;;5043404;28;20517;-83
2021/07/22 00:38:53;;;;;;;15.47;8.97;;;17.50;99.90;;;;;;5043007;28;20517;-84
2021/07/22 00:41:20;;;;;;;15.90;7.83;;;17.60;99.90;;;;;;5039452;28;20473;-83
2021/07/22 00:43:48;;;;;;;19.63;8.53;;;17.60;99.90;;;;;;5056527;28;20486;-83
2021/07/22 00:46:15;;;;;;;17.80;8.53;;;17.60;99.90;;;;;;5042726;28;20508;-83
2021/07/22 00:48:42;;;;;;;15.40;7.80;;;17.60;99.90;;;;;;5018999;28;20489;-84
2021/07/22 00:51:09;;;;;;;21.73;8.37;;;17.70;99.90;;;;;;5019805;28;20453;-84
2021/07/22 00:53:36;;;;;;;17.30;8.20;;;17.70;99.90;;;;;;5038483;28;20457;-84
2021/07/22 00:56:05;;;;;;;17.17;8.40;;;17.70;99.90;;;;;;5021894;28;20966;-84
2021/07/22 00:58:31;;;;;;;15.83;8.40;;;17.70;99.90;;;;;;5018598;28;20485;-83
2021/07/22 01:01:00;;;;;;;16.10;9.30;;;17.80;99.90;;;;;;5017923;28;20523;-84
2021/07/22 01:03:27;;;;;;;15.97;7.90;;;17.80;99.90;;;;;;5034209;28;20452;-84
2021/07/22 01:05:54;;;;;;;18.20;9.90;;;17.80;99.90;;;;;;5028637;28;20473;-84
2021/07/22 01:08:21;;;;;;;14.90;8.13;;;17.80;99.90;;;;;;5040183;28;20475;-83
2021/07/22 01:10:47;;;;;;;14.60;7.30;;;17.80;99.90;;;;;;5036489;28;20624;-84
2021/07/22 01:13:14;;;;;;;16.90;9.27;;;17.80;99.90;;;;;;5019833;28;20941;-84
2021/07/22 01:15:41;;;;;;;15.40;7.73;;;17.90;99.90;;;;;;5020061;28;20962;-84
2021/07/22 01:18:10;;;;;;;14.70;8.20;;;17.80;99.90;;;;;;5034924;28;20498;-84
2021/07/22 01:20:38;;;;;;;18.77;8.73;;;17.80;99.90;;;;;;5038115;28;20553;-83
2021/07/22 01:23:05;;;;;;;15.60;8.10;;;17.80;99.90;;;;;;5034593;28;20445;-84
2021/07/22 01:25:32;;;;;;;17.03;9.50;;;17.80;99.90;;;;;;5020028;28;20457;-83
2021/07/22 01:27:59;;;;;;;15.10;7.70;;;17.80;99.90;;;;;;5020491;28;20473;-84
2021/07/22 01:30:26;;;;;;;17.30;8.03;;;17.80;99.90;;;;;;5033006;28;20539;-84
2021/07/22 01:32:53;;;;;;;15.70;8.47;;;17.80;99.90;;;;;;5038881;28;20868;-83
2021/07/22 01:35:20;;;;;;;15.03;8.10;;;17.70;99.90;;;;;;5037709;28;20463;-84
2021/07/22 01:37:49;;;;;;;16.60;8.10;;;17.70;99.90;;;;;;5038553;28;20459;-85
2021/07/22 01:40:18;;;;;;;15.77;8.17;;;17.70;99.90;;;;;;5032366;28;20481;-84
2021/07/22 01:42:46;;;;;;;15.80;7.70;;;17.60;99.90;;;;;;5030009;28;20465;-84
2021/07/22 01:45:13;;;;;;;14.77;7.70;;;17.60;99.90;;;;;;5019934;28;20454;-84
2021/07/22 01:47:41;;;;;;;16.70;8.13;;;17.60;99.90;;;;;;5020171;28;20449;-84
2021/07/22 01:50:09;;;;;;;16.20;8.27;;;17.50;99.90;;;;;;5018400;28;20464;-84
2021/07/22 01:52:36;;;;;;;16.33;8.40;;;17.50;99.90;;;;;;5033182;28;20449;-85
2021/07/22 01:55:05;;;;;;;13.53;6.77;;;17.40;99.90;;;;;;5030108;28;20452;-84
2021/07/22 01:57:32;;;;;;;16.97;9.63;;;17.40;99.90;;;;;;5017969;28;20449;-84
2021/07/22 02:00:04;;;;;;;16.70;8.20;;;17.40;99.90;;;;;;5019043;28;20446;-84
2021/07/22 02:02:31;;;;;;;16.27;8.40;;;17.40;99.90;;;;;;5031876;28;21039;-84
2021/07/22 02:04:58;;;;;;;18.87;8.43;;;17.30;99.90;;;;;;5040071;28;20453;-84
2021/07/22 02:07:25;;;;;;;16.77;8.57;;;17.30;99.90;;;;;;5029776;28;20457;-84
2021/07/22 02:09:52;;;;;;;16.30;8.37;;;17.30;99.90;;;;;;5035741;28;20477;-84
2021/07/22 02:12:20;;;;;;;16.23;8.50;;;17.30;99.90;;;;;;5027476;28;20543;-83
2021/07/22 02:14:50;;;;;;;16.17;7.93;;;17.30;99.90;;;;;;5039243;28;20458;-84
2021/07/22 02:17:17;;;;;;;17.00;8.20;;;17.30;99.90;;;;;;5038852;28;20511;-84
2021/07/22 02:19:44;;;;;;;13.93;7.47;;;17.30;99.90;;;;;;5042174;28;20457;-84
2021/07/22 02:22:11;;;;;;;19.20;8.20;;;17.20;99.90;;;;;;5034544;28;20479;-85
2021/07/22 02:24:37;;;;;;;15.40;8.57;;;17.20;99.90;;;;;;5037527;28;20452;-84
2021/07/22 02:27:05;;;;;;;13.97;7.40;;;17.10;99.90;;;;;;5038162;28;20452;-85
2021/07/22 02:29:33;;;;;;;15.77;8.10;;;17.10;99.90;;;;;;5037759;28;20845;-85
2021/07/22 02:32:00;;;;;;;15.47;7.87;;;17.10;99.90;;;;;;5032957;28;20970;-85
2021/07/22 02:34:27;;;;;;;14.50;7.40;;;17.10;99.90;;;;;;5025756;28;20463;-84
2021/07/22 02:36:53;;;;;;;15.63;7.53;;;17.10;99.90;;;;;;5018779;28;20545;-84
2021/07/22 02:39:20;;;;;;;17.83;8.80;;;17.10;99.90;;;;;;5026492;28;20621;-84
2021/07/22 02:41:47;;;;;;;15.33;7.63;;;17.10;99.90;;;;;;5017422;28;20902;-84
2021/07/22 02:44:14;;;;;;;16.27;8.60;;;17.00;99.90;;;;;;5036836;28;20453;-84
2021/07/22 02:46:42;;;;;;;17.37;7.63;;;17.00;99.90;;;;;;5038409;28;20516;-84
2021/07/22 02:49:09;;;;;;;15.50;7.90;;;17.00;99.90;;;;;;5038596;28;20469;-84
2021/07/22 02:51:36;;;;;;;16.43;8.83;;;17.00;99.90;;;;;;5043986;28;20555;-84
2021/07/22 02:54:02;;;;;;;15.40;8.10;;;17.10;99.90;;;;;;5040930;28;20563;-83
2021/07/22 02:56:29;;;;;;;16.43;7.77;;;17.00;99.90;;;;;;5046248;28;20453;-84
2021/07/22 02:58:56;;;;;;;15.47;8.07;;;17.00;99.90;;;;;;5046153;28;20532;-83
2021/07/22 03:01:23;;;;;;;16.00;8.37;;;17.00;99.90;;;;;;5028490;28;20566;-84
2021/07/22 03:03:51;;;;;;;14.17;8.07;;;17.00;99.90;;;;;;5044672;28;20524;-84
2021/07/22 03:06:18;;;;;;;15.00;8.23;;;17.00;99.90;;;;;;5045693;28;20452;-84
2021/07/22 03:08:44;;;;;;;17.23;9.27;;;17.00;99.90;;;;;;5037517;28;20497;-84
2021/07/22 03:11:11;;;;;;;14.77;7.43;;;16.90;99.90;;;;;;5023248;28;20458;-84
2021/07/22 03:13:39;;;;;;;14.50;7.80;;;16.90;99.90;;;;;;5035129;28;20459;-84
2021/07/22 03:16:06;;;;;;;14.90;7.27;;;16.90;99.90;;;;;;5040069;28;20510;-85
2021/07/22 03:18:33;;;;;;;15.80;8.10;;;16.90;99.90;;;;;;5025060;28;20553;-84
2021/07/22 03:21:01;;;;;;;15.17;8.13;;;16.90;99.90;;;;;;5019200;28;20511;-84
2021/07/22 03:23:28;;;;;;;14.93;7.67;;;16.80;99.90;;;;;;5024546;28;21012;-83
2021/07/22 03:25:55;;;;;;;15.00;8.20;;;16.80;99.90;;;;;;5028954;28;20449;-85
2021/07/22 03:28:23;;;;;;;15.77;8.50;;;16.80;99.90;;;;;;5037137;28;20484;-83
2021/07/22 03:30:49;;;;;;;16.77;8.33;;;16.80;99.90;;;;;;5037959;28;21092;-84
2021/07/22 03:33:16;;;;;;;16.10;8.23;;;16.80;99.90;;;;;;5038984;28;20543;-84
2021/07/22 03:35:43;;;;;;;14.40;7.53;;;16.70;99.90;;;;;;5023949;28;20460;-85
2021/07/22 03:38:11;;;;;;;12.87;6.83;;;16.80;99.90;;;;;;5019196;28;20544;-82
2021/07/22 03:40:38;;;;;;;15.63;7.63;;;16.70;99.90;;;;;;5030169;28;20476;-84
2021/07/22 03:43:05;;;;;;;16.90;7.87;;;16.70;99.90;;;;;;5041126;28;20457;-84
2021/07/22 03:45:32;;;;;;;14.43;8.20;;;16.70;99.90;;;;;;5043973;28;20457;-85
2021/07/22 03:48:01;;;;;;;15.20;8.17;;;16.70;99.90;;;;;;5036646;28;20599;-85
2021/07/22 03:50:28;;;;;;;18.50;7.37;;;16.70;99.90;;;;;;5028875;28;20457;-85
2021/07/22 03:52:56;;;;;;;16.63;8.63;;;16.70;99.90;;;;;;5041466;28;20457;-85
2021/07/22 03:55:26;;;;;;;14.37;7.73;;;16.70;99.90;;;;;;5043244;28;20449;-85
2021/07/22 03:57:53;;;;;;;17.17;8.90;;;16.70;99.90;;;;;;5025403;28;20800;-85
2021/07/22 04:00:20;;;;;;;14.77;8.20;;;16.70;99.90;;;;;;5035659;28;20509;-85
2021/07/22 04:02:47;;;;;;;14.67;8.23;;;16.70;99.90;;;;;;5035395;28;20473;-85
2021/07/22 04:05:13;;;;;;;16.13;7.80;;;16.70;99.90;;;;;;5042486;28;20457;-85
2021/07/22 04:07:40;;;;;;;16.77;8.40;;;16.70;99.90;;;;;;5024652;28;20460;-88
2021/07/22 04:10:08;;;;;;;16.50;8.20;;;16.60;99.90;;;;;;5040644;28;20514;-87
2021/07/22 04:12:36;;;;;;;15.77;8.17;;;16.60;99.90;;;;;;5045152;28;20482;-88
2021/07/22 04:15:04;;;;;;;15.20;7.63;;;16.60;99.90;;;;;;5038520;28;20969;-88
2021/07/22 04:17:31;;;;;;;16.53;8.03;;;16.70;99.90;;;;;;5032964;28;20540;-87
2021/07/22 04:19:57;;;;;;;17.97;8.30;;;16.70;99.90;;;;;;5028772;28;20806;-87
2021/07/22 04:22:24;;;;;;;14.50;7.10;;;16.70;99.90;;;;;;5020167;28;20576;-88
2021/07/22 04:24:51;;;;;;;16.07;8.10;;;16.70;99.90;;;;;;5014378;28;20464;-86
2021/07/22 04:27:19;;;;;;;14.17;7.40;;;16.80;99.90;;;;;;5028379;28;20448;-88
2021/07/22 04:29:47;;;;;;;17.80;8.20;;;16.80;99.90;;;;;;5034537;28;20472;-88
2021/07/22 04:32:14;;;;;;;15.23;7.40;;;16.90;99.90;;;;;;5034616;28;20444;-89
2021/07/22 04:34:41;;;;;;;15.23;8.00;;;16.90;99.90;;;;;;5034693;28;21140;-89
2021/07/22 04:37:08;;;;;;;18.47;8.90;;;17.00;99.90;;;;;;5035707;28;20800;-89
2021/07/22 04:39:35;;;;;;;17.50;8.90;;;17.10;99.90;;;;;;5033163;28;20847;-89
2021/07/22 04:42:01;;;;;;;15.60;8.37;;;17.10;99.90;;;;;;5036727;28;20492;-89
2021/07/22 04:44:28;;;;;;;17.50;8.47;;;17.10;99.90;;;;;;5043399;28;20483;-88
2021/07/22 04:46:57;;;;;;;14.30;8.43;;;17.20;99.90;;;;;;5038358;28;20831;-88
2021/07/22 04:49:24;;;;;;;15.10;8.70;;;17.20;99.90;;;;;;5040937;28;20548;-89
2021/07/22 04:51:51;;;;;;;14.53;7.93;;;17.30;99.90;;;;;;5044954;28;20453;-87
2021/07/22 04:54:17;;;;;;;16.03;7.27;;;17.30;99.90;;;;;;5051198;28;20489;-87
2021/07/22 04:56:44;;;;;;;15.80;8.30;;;17.40;99.90;;;;;;5041382;28;20476;-88
2021/07/22 04:59:11;;;;;;;12.87;7.17;;;17.40;99.90;;;;;;5043105;28;20536;-89
2021/07/22 05:01:38;;;;;;;14.30;7.30;;;17.50;99.90;;;;;;5047945;28;20571;-88
2021/07/22 05:04:07;;;;;;;18.57;8.80;;;17.60;99.90;;;;;;5052178;28;20461;-88
2021/07/22 05:06:34;;;;;;;16.23;8.60;;;17.70;99.90;;;;;;5047151;28;20455;-89
2021/07/22 05:09:07;;;;;;;16.23;8.33;;;17.80;99.90;;;;;;5047155;22;20926;-88
2021/07/22 05:11:49;;;;;;;14.63;8.37;;;17.90;99.90;;;;;;5015562;28;20961;-88
2021/07/22 05:14:34;;;;;;;14.87;7.77;;;18.00;99.90;;;;;;5015834;28;20484;-88
2021/07/22 05:22:54;;;;;;;20.63;8.60;;;18.20;99.90;;;;;;4981575;28;20568;-88
2021/07/22 05:25:39;;;;;;;17.60;8.63;;;18.30;99.90;;;;;;4995576;28;20955;-88
2021/07/22 05:28:12;;;;;;;15.60;9.13;;;18.40;99.90;;;;;;4994863;28;20482;-88
2021/07/22 05:30:40;;;;;;;17.60;8.67;;;18.50;99.90;;;;;;4994331;28;20501;-89
2021/07/22 05:33:08;;;;;;;15.33;7.97;;;18.50;99.90;;;;;;4995639;28;21042;-87
2021/07/22 05:35:37;;;;;;;16.60;8.80;;;18.60;99.90;;;;;;4983143;28;20463;-89
2021/07/22 05:38:06;;;;;;;16.33;8.77;;;18.70;99.90;;;;;;4992868;28;20561;-88
2021/07/22 05:40:40;;;;;;;15.70;8.20;;;18.80;99.90;;;;;;4993804;28;20462;-89
2021/07/22 05:43:09;;;;;;;19.57;9.20;;;18.80;99.90;;;;;;4995941;28;20994;-87
2021/07/22 05:45:40;;;;;;;15.77;8.60;;;18.90;99.90;;;;;;4994951;28;20487;-88
2021/07/22 05:48:07;;;;;;;15.00;8.40;;;18.90;99.90;;;;;;4994236;28;20473;-87
2021/07/22 05:50:34;;;;;;;17.70;8.97;;;19.00;99.90;;;;;;4991155;28;20470;-89
2021/07/22 05:53:02;;;;;;;16.70;8.80;;;19.00;99.90;;;;;;4994817;28;20443;-88
2021/07/22 05:55:28;;;;;;;15.27;8.07;;;19.10;99.90;;;;;;4995158;28;20459;-89
2021/07/22 05:58:01;;;;;;;16.40;8.57;;;19.10;99.90;;;;;;4986835;28;20483;-90
2021/07/22 06:00:31;;;;;;;16.37;8.70;;;19.20;99.90;;;;;;4983631;28;20853;-88
2021/07/22 06:02:58;;;;;;;15.20;8.60;;;19.20;99.90;;;;;;4989764;28;20570;-91
2021/07/22 06:05:24;;;;;;;15.20;8.17;;;19.30;99.90;;;;;;4975979;28;20841;-89
2021/07/22 06:07:51;;;;;;;16.10;8.70;;;19.40;99.90;;;;;;4976901;28;20475;-89
2021/07/22 06:10:20;;;;;;;16.43;8.50;;;19.40;99.90;;;;;;4986683;28;20449;-89
2021/07/22 06:12:51;;;;;;;15.17;7.93;;;19.40;99.90;;;;;;4982744;28;20458;-88
2021/07/22 06:15:18;;;;;;;15.33;8.57;;;19.50;99.90;;;;;;4989387;28;20494;-88
2021/07/22 06:17:45;;;;;;;19.53;9.53;;;19.50;99.90;;;;;;4978948;28;21006;-89
2021/07/22 06:20:16;;;;;;;20.50;10.53;;;19.50;99.90;;;;;;4994289;28;20845;-89
2021/07/22 06:22:45;;;;;;;15.57;7.80;;;19.50;99.90;;;;;;4980834;28;20852;-89
2021/07/22 06:25:15;;;;;;;17.70;7.77;;;19.50;99.90;;;;;;4982880;28;20451;-88
2021/07/22 06:27:44;;;;;;;15.10;7.50;;;19.60;99.90;;;;;;4977460;28;21006;-89
2021/07/22 06:30:12;;;;;;;15.97;8.07;;;19.60;99.90;;;;;;4986260;28;20952;-89
2021/07/22 06:32:39;;;;;;;17.00;8.83;;;19.60;99.90;;;;;;4990700;28;20455;-89
2021/07/22 06:35:08;;;;;;;16.17;9.23;;;19.60;99.90;;;;;;4988045;28;20470;-89
2021/07/22 06:37:49;;;;;;;17.37;8.00;;;19.70;99.90;;;;;;4992892;28;20553;-89
2021/07/22 06:40:17;;;;;;;15.47;7.40;;;19.80;99.90;;;;;;4993919;28;20479;-89
2021/07/22 06:42:46;;;;;;;15.80;7.70;;;19.90;99.90;;;;;;5000521;28;20510;-89
2021/07/22 06:45:13;;;;;;;21.60;8.73;;;19.90;99.90;;;;;;4997541;28;20467;-89
2021/07/22 06:47:41;;;;;;;15.77;7.23;;;20.00;99.90;;;;;;4991925;28;20481;-90
2021/07/22 06:50:09;;;;;;;16.77;8.07;;;20.10;99.90;;;;;;4993843;28;20466;-90
2021/07/22 06:52:43;;;;;;;19.57;7.70;;;20.20;99.90;;;;;;4994245;28;20454;-89
2021/07/22 06:55:11;;;;;;;14.13;7.00;;;20.30;99.90;;;;;;4994322;28;20551;-89
2021/07/22 06:57:39;;;;;;;14.53;7.03;;;20.40;99.90;;;;;;4992655;28;21041;-88
2021/07/22 07:00:08;;;;;;;18.47;7.30;;;20.40;99.90;;;;;;4991682;28;20486;-86
2021/07/22 07:02:35;;;;;;;24.13;8.47;;;20.50;99.90;;;;;;4985975;28;20492;-86
2021/07/22 07:05:02;;;;;;;17.33;7.60;;;20.60;99.90;;;;;;4992736;28;20549;-85
2021/07/22 07:07:29;;;;;;;14.10;6.53;;;20.60;99.90;;;;;;4993371;28;20451;-87
2021/07/22 07:09:55;;;;;;;21.90;7.87;;;20.70;99.90;;;;;;4992378;28;20462;-88
2021/07/22 07:12:22;;;;;;;14.50;6.60;;;20.80;99.90;;;;;;4991227;28;20836;-88
2021/07/22 07:14:49;;;;;;;16.93;6.60;;;20.90;99.90;;;;;;4993266;28;20932;-87
2021/07/22 07:17:17;;;;;;;16.90;7.60;;;21.00;99.90;;;;;;4993754;28;20541;-89
2021/07/22 07:19:44;;;;;;;16.37;8.03;;;21.00;99.90;;;;;;4992867;28;20451;-88
2021/07/22 07:22:11;;;;;;;17.47;7.70;;;21.20;99.90;;;;;;4992250;28;20478;-90
2021/07/22 07:24:38;;;;;;;15.40;7.70;;;21.20;99.90;;;;;;4991633;28;20458;-89
2021/07/22 07:27:06;;;;;;;15.80;7.67;;;21.30;99.90;;;;;;4991443;28;20541;-88
2021/07/22 07:29:33;;;;;;;15.50;7.60;;;21.40;99.90;;;;;;4993060;28;20475;-87
2021/07/22 07:32:01;;;;;;;17.43;7.40;;;21.50;99.90;;;;;;4993221;28;20455;-87
2021/07/22 07:34:30;;;;;;;16.70;7.63;;;21.50;99.90;;;;;;4986271;28;20984;-88
2021/07/22 07:36:57;;;;;;;17.30;6.93;;;21.40;99.90;;;;;;4977137;28;20463;-88
2021/07/22 07:39:24;;;;;;;15.80;7.50;;;21.60;99.90;;;;;;4985062;28;20538;-89
2021/07/22 07:41:51;;;;;;;19.80;8.47;;;21.70;99.90;;;;;;4987993;28;20565;-87
2021/07/22 07:44:18;;;;;;;17.00;7.13;;;21.80;99.90;;;;;;4989825;28;20465;-88
2021/07/22 07:46:44;;;;;;;19.10;8.40;;;21.90;99.90;;;;;;4994374;28;20943;-87
2021/07/22 07:49:12;;;;;;;21.83;8.20;;;21.90;99.90;;;;;;4993216;28;20534;-87
2021/07/22 07:51:40;;;;;;;16.17;6.90;;;21.90;99.90;;;;;;4994033;28;20484;-88
2021/07/22 07:54:10;;;;;;;16.83;7.63;;;22.10;99.90;;;;;;4993505;28;20554;-90
2021/07/22 07:56:37;;;;;;;16.60;7.87;;;22.00;99.90;;;;;;5009137;28;20534;-88
2021/07/22 07:59:04;;;;;;;18.70;8.07;;;22.10;99.90;;;;;;5002411;28;20505;-87
2021/07/22 08:01:31;;;;;;;15.37;6.67;;;22.10;99.90;;;;;;4995246;28;20545;-87
2021/07/22 08:03:58;;;;;;;19.90;7.70;;;22.20;99.90;;;;;;4983642;28;20548;-87
2021/07/22 08:06:25;;;;;;;15.50;7.23;;;22.30;99.90;;;;;;4992447;28;20459;-88
2021/07/22 08:08:53;;;;;;;19.50;7.03;;;22.40;99.90;;;;;;4983347;28;20483;-87
2021/07/22 08:11:20;;;;;;;14.30;6.40;;;22.50;99.90;;;;;;4978748;28;20490;-87
2021/07/22 08:13:47;;;;;;;16.77;7.60;;;22.50;99.90;;;;;;4992915;28;20453;-87
2021/07/22 08:16:17;;;;;;;16.70;7.03;;;22.60;99.90;;;;;;5004619;28;20450;-86
2021/07/22 08:18:45;;;;;;;16.37;7.63;;;22.70;99.90;;;;;;4993807;28;20474;-86
2021/07/22 08:21:12;;;;;;;22.57;8.20;;;22.70;99.90;;;;;;4991949;28;20477;-86
2021/07/22 08:23:40;;;;;;;16.90;7.73;;;22.60;99.90;;;;;;4993342;28;20505;-86
2021/07/22 08:26:09;;;;;;;17.40;7.80;;;22.70;99.90;;;;;;4992697;28;20465;-86
2021/07/22 08:28:36;;;;;;;18.10;7.80;;;22.80;99.90;;;;;;4992352;28;21274;-88
2021/07/22 08:31:03;;;;;;;17.67;8.03;;;22.80;99.90;;;;;;4989025;28;20951;-87
2021/07/22 08:33:30;;;;;;;18.70;8.90;;;22.90;99.90;;;;;;4995335;28;20549;-88
2021/07/22 08:35:57;;;;;;;16.60;7.70;;;23.00;99.90;;;;;;5013221;28;20443;-87
2021/07/22 08:38:24;;;;;;;19.63;7.83;;;22.90;99.90;;;;;;4991923;28;20486;-90
2021/07/22 08:40:51;;;;;;;17.60;8.20;;;23.00;99.90;;;;;;4987735;28;20449;-87
2021/07/22 08:43:21;;;;;;;18.10;8.37;;;23.10;99.90;;;;;;4992099;28;20474;-87
2021/07/22 08:45:48;;;;;;;18.87;7.93;;;23.20;99.90;;;;;;4992674;28;20970;-87
2021/07/22 08:48:15;;;;;;;18.93;9.40;;;23.30;99.90;;;;;;4992171;28;20474;-87
2021/07/22 08:50:55;;;;;;;16.43;7.67;;;23.20;99.90;;;;;;4990020;28;20462;-86
2021/07/22 08:53:22;;;;;;;17.23;8.37;;;23.20;99.90;;;;;;4980297;28;20451;-87
2021/07/22 08:55:50;;;;;;;17.60;8.40;;;23.30;99.90;;;;;;4991464;28;20914;-86
2021/07/22 08:58:21;;;;;;;20.47;8.57;;;23.40;99.90;;;;;;4987903;28;20513;-87
2021/07/22 09:00:48;;;;;;;19.60;9.13;;;23.40;99.90;;;;;;4991891;28;20454;-86
2021/07/22 09:03:14;;;;;;;25.30;11.03;;;23.60;99.90;;;;;;4991609;28;20493;-86
2021/07/22 09:05:43;;;;;;;17.20;9.20;;;23.70;99.90;;;;;;4992321;28;20453;-86
2021/07/22 09:08:09;;;;;;;19.37;9.77;;;24.10;99.90;;;;;;4992551;28;20565;-87
2021/07/22 09:10:36;;;;;;;21.47;9.47;;;24.30;99.90;;;;;;4992783;28;20866;-87
2021/07/22 09:13:03;;;;;;;22.27;9.00;;;24.60;99.90;;;;;;4992671;28;20463;-87
2021/07/22 09:15:34;;;;;;;32.80;9.33;;;24.90;99.90;;;;;;4994233;28;20450;-87
2021/07/22 09:18:20;;;;;;;24.03;10.30;;;25.00;99.90;;;;;;4993420;28;20525;-86
2021/07/22 09:20:47;;;;;;;30.00;10.97;;;25.20;99.90;;;;;;4994526;28;20447;-87
2021/07/22 09:23:19;;;;;;;30.77;9.23;;;25.10;99.90;;;;;;4997551;28;20504;-87
2021/07/22 09:25:47;;;;;;;28.73;9.83;;;24.90;99.90;;;;;;4994614;28;20554;-87
2021/07/22 09:28:17;;;;;;;29.60;10.07;;;24.80;99.90;;;;;;4997979;28;20502;-85
2021/07/22 09:31:16;;;;;;;53.00;10.70;;;24.80;99.90;;;;;;4995906;28;20438;-86
2021/07/22 09:33:44;;;;;;;52.77;10.13;;;24.60;99.90;;;;;;4928996;29;20441;-87
2021/07/22 09:36:33;;;;;;;261.97;245.07;;;24.60;99.90;;;;;;4986935;28;20619;-87
2021/07/22 09:39:19;;;;;;;75.63;34.23;;;24.60;99.90;;;;;;4999315;28;20535;-87
2021/07/22 09:41:46;;;;;;;256.83;239.90;;;24.50;99.90;;;;;;5017399;28;20446;-87
2021/07/22 09:44:31;;;;;;;435.63;410.57;;;24.60;99.90;;;;;;5017973;28;20537;-88
2021/07/22 09:47:00;;;;;;;210.83;196.20;;;24.90;99.90;;;;;;5017796;28;20450;-88
2021/07/22 09:49:32;;;;;;;81.43;64.50;;;25.00;99.90;;;;;;5017590;28;20459;-85
2021/07/22 09:52:01;;;;;;;56.83;13.30;;;25.00;99.90;;;;;;5016866;28;20435;-87
2021/07/22 09:54:33;;;;;;;547.93;516.30;;;25.10;99.90;;;;;;5017661;28;20451;-87
2021/07/22 09:57:02;;;;;;;490.27;462.83;;;24.90;99.90;;;;;;5017436;28;20439;-88
2021/07/22 10:00:09;;;;;;;1999.90;999.90;;;25.20;99.90;;;;;;5015817;28;20482;-87
2021/07/22 10:02:40;;;;;;;1999.90;999.90;;;25.50;99.90;;;;;;4981343;28;20514;-87
2021/07/22 10:05:09;;;;;;;593.53;559.67;;;25.70;99.90;;;;;;5002249;28;20459;-88
2021/07/22 10:07:37;;;;;;;615.50;579.60;;;26.00;99.90;;;;;;5018721;28;20431;-85
2021/07/22 10:10:12;;;;;;;1999.90;999.90;;;26.10;99.90;;;;;;5018539;28;20478;-87
2021/07/22 10:15:27;;;;;;;1999.90;999.90;;;26.10;99.90;;;;;;5008884;28;20478;-89
2021/07/22 10:17:57;;;;;;;1999.90;999.90;;;26.10;99.90;;;;;;5016145;28;20462;-89
2021/07/22 10:20:31;;;;;;;1999.90;999.90;;;26.00;99.90;;;;;;5016709;28;20454;-90
2021/07/22 10:23:13;;;;;;;1999.90;999.90;;;25.80;99.90;;;;;;5016375;28;20497;-86
2021/07/22 10:25:40;;;;;;;1999.90;999.90;;;26.20;99.90;;;;;;5016852;28;20442;-88
2021/07/22 10:28:15;;;;;;;1999.90;999.90;;;26.20;99.90;;;;;;5017286;28;20454;-87
2021/07/22 10:30:42;;;;;;;1999.90;999.90;;;26.20;99.90;;;;;;5016029;28;20517;-88
2021/07/22 10:33:11;;;;;;;1999.90;999.90;;;26.40;99.90;;;;;;5017490;28;20470;-87
2021/07/22 10:35:39;;;;;;;1999.90;999.90;;;26.70;99.90;;;;;;5018687;28;20478;-88
2021/07/22 10:38:08;;;;;;;1999.90;999.90;;;27.00;99.90;;;;;;5018868;28;20469;-88
2021/07/22 10:40:47;;;;;;;1999.90;999.90;;;27.40;99.90;;;;;;5015737;28;20444;-89
2021/07/22 10:43:36;;;;;;;1999.90;999.90;;;27.50;99.90;;;;;;5016837;28;20584;-89
2021/07/22 10:46:04;;;;;;;1999.90;999.90;;;27.80;99.90;;;;;;5011545;28;20502;-88
2021/07/22 10:48:37;;;;;;;1999.90;999.90;;;28.10;99.90;;;;;;5002360;28;20522;-89
2021/07/22 10:51:10;;;;;;;1999.90;999.90;;;27.70;99.90;;;;;;5011747;28;20494;-90
2021/07/22 10:53:44;;;;;;;1999.90;999.90;;;27.50;99.90;;;;;;5016746;28;20478;-89
2021/07/22 10:56:12;;;;;;;1999.90;999.90;;;27.10;99.90;;;;;;5016326;28;20502;-88
2021/07/22 10:58:49;;;;;;;1999.90;999.90;;;26.80;99.90;;;;;;5016079;28;20534;-90
2021/07/22 11:02:03;;;;;;;1999.90;999.90;;;26.50;99.90;;;;;;5015615;28;20480;-90
2021/07/22 11:04:45;;;;;;;1999.90;999.90;;;26.00;99.90;;;;;;5006807;28;20515;-89
2021/07/22 11:07:23;;;;;;;1999.90;999.90;;;25.60;99.90;;;;;;5012633;28;20443;-88
2021/07/22 11:09:53;;;;;;;1999.90;999.90;;;25.50;99.90;;;;;;5002275;28;20913;-87
2021/07/22 11:12:55;;;;;;;1999.90;999.90;;;25.80;99.90;;;;;;5008240;28;20456;-88
2021/07/22 11:16:01;;;;;;;1999.90;999.90;;;26.70;99.90;;;;;;4997103;28;20469;-87
2021/07/22 11:18:52;;;;;;;1999.90;999.90;;;27.20;99.90;;;;;;4994645;28;20470;-87
2021/07/22 11:21:26;;;;;;;1999.90;999.90;;;27.60;99.90;;;;;;4993270;28;20442;-88
2021/07/22 11:23:54;;;;;;;1999.90;999.90;;;27.40;99.90;;;;;;4993371;28;20955;-88
2021/07/22 11:26:25;;;;;;;1999.90;999.90;;;27.60;99.90;;;;;;4993374;28;20450;-89
2021/07/22 11:28:53;;;;;;;1999.90;999.90;;;28.00;99.90;;;;;;4993567;28;20470;-88
2021/07/22 11:31:20;;;;;;;1446.50;772.37;;;28.40;99.90;;;;;;4994333;28;20450;-87
2021/07/22 11:33:47;;;;;;;1999.90;999.90;;;28.70;99.90;;;;;;4985326;28;20458;-89
2021/07/22 11:36:16;;;;;;;220.97;204.20;;;29.10;99.90;;;;;;4993299;28;20530;-89
2021/07/22 11:38:50;;;;;;;1424.13;751.17;;;29.00;99.90;;;;;;4991369;28;20521;-85
2021/07/22 11:41:17;;;;;;;1999.90;999.90;;;28.80;99.90;;;;;;5049957;22;20502;-87
2021/07/22 11:43:46;;;;;;;1999.90;999.90;;;28.90;99.90;;;;;;5056039;28;20493;-87
2021/07/22 11:46:14;;;;;;;1999.90;999.90;;;28.70;99.90;;;;;;5054546;28;20547;-87
2021/07/22 11:48:43;;;;;;;1999.90;999.90;;;28.40;99.90;;;;;;5053640;28;20466;-88
2021/07/22 11:51:11;;;;;;;1999.90;999.90;;;28.20;99.90;;;;;;5064389;28;20474;-88
2021/07/22 11:53:38;;;;;;;1999.90;999.90;;;27.80;99.90;;;;;;5057234;28;20448;-87
2021/07/22 11:56:14;;;;;;;1999.90;999.90;;;27.50;99.90;;;;;;5055291;28;20542;-88
2021/07/22 11:58:44;;;;;;;1999.90;999.90;;;27.20;99.90;;;;;;5054282;28;20442;-88
2021/07/22 12:01:11;;;;;;;1999.90;999.90;;;27.00;99.90;;;;;;5056313;28;20452;-88
2021/07/22 12:03:38;;;;;;;1999.90;999.90;;;26.90;99.90;;;;;;5065304;28;20570;-87
2021/07/22 12:06:05;;;;;;;1999.90;999.90;;;26.50;99.90;;;;;;5065360;28;20449;-89
2021/07/22 12:08:32;;;;;;;1999.90;999.90;;;26.80;99.90;;;;;;5071108;28;20454;-88
2021/07/22 12:11:01;;;;;;;1999.90;999.90;;;27.30;99.90;;;;;;5062485;28;20520;-87
2021/07/22 12:13:52;;;;;;;1999.90;999.90;;;27.40;99.90;;;;;;5064931;28;20440;-87
2021/07/22 12:16:24;;;;;;;1999.90;999.90;;;27.10;99.90;;;;;;5058687;28;21082;-89
2021/07/22 12:18:52;;;;;;;1999.90;999.90;;;27.10;99.90;;;;;;5076490;28;21006;-87
2021/07/22 12:21:21;;;;;;;1999.90;999.90;;;27.70;99.90;;;;;;5066674;28;20476;-88
2021/07/22 12:23:48;;;;;;;1999.90;999.90;;;28.30;99.90;;;;;;5056497;28;20480;-88
2021/07/22 12:26:16;;;;;;;337.20;315.63;;;28.80;99.90;;;;;;5058253;28;20444;-87
2021/07/22 12:28:45;;;;;;;1999.90;999.90;;;29.10;99.90;;;;;;5070009;28;20466;-88
2021/07/22 12:31:16;;;;;;;1999.90;999.90;;;29.20;99.90;;;;;;5072174;28;20474;-87
2021/07/22 12:33:43;;;;;;;1999.90;999.90;;;28.80;99.90;;;;;;5062113;28;20471;-87
2021/07/22 12:36:20;;;;;;;1999.90;999.90;;;28.30;99.90;;;;;;5071773;28;20486;-88
2021/07/22 12:38:47;;;;;;;1999.90;999.90;;;27.90;99.90;;;;;;5072822;28;20446;-87
2021/07/22 12:41:26;;;;;;;1999.90;999.90;;;27.80;99.90;;;;;;5062716;28;21010;-88
2021/07/22 12:43:54;;;;;;;1999.90;999.90;;;27.90;99.90;;;;;;5057551;28;20482;-89
2021/07/22 12:46:22;;;;;;;207.47;191.10;;;27.70;99.90;;;;;;5073304;28;20543;-88
2021/07/22 12:48:50;;;;;;;145.13;131.00;;;27.90;99.90;;;;;;5068397;28;20519;-87